createdAt,value
2019-05-29T00:00:34.787Z,8.08
2019-05-29T00:03:02.467Z,8.73
2019-05-29T00:05:29.969Z,8.47
2019-05-29T00:07:57.462Z,8.78
2019-05-29T00:10:24.927Z,8.43
2019-05-29T00:12:52.744Z,8.90
2019-05-29T00:15:20.264Z,9.10
2019-05-29T00:17:47.735Z,8.33
2019-05-29T00:20:15.213Z,8.30
2019-05-29T00:22:42.769Z,7.70
2019-05-29T00:25:10.626Z,9.13
2019-05-29T00:27:38.322Z,9.60
2019-05-29T00:30:06.942Z,9.63
2019-05-29T00:32:34.671Z,8.97
2019-05-29T00:35:02.271Z,9.63
2019-05-29T00:37:29.722Z,8.95
2019-05-29T00:39:57.162Z,9.28
2019-05-29T00:42:25.027Z,9.13
2019-05-29T00:44:52.464Z,9.20
2019-05-29T00:47:19.889Z,9.35
2019-05-29T00:49:47.376Z,9.43
2019-05-29T00:52:14.896Z,9.73
2019-05-29T00:54:42.407Z,8.80
2019-05-29T00:57:10.893Z,9.13
2019-05-29T00:59:38.684Z,9.43
2019-05-29T01:02:06.277Z,9.30
2019-05-29T01:04:33.777Z,9.43
2019-05-29T01:07:01.229Z,9.93
2019-05-29T01:09:28.728Z,9.43
2019-05-29T01:11:56.179Z,9.28
2019-05-29T01:14:23.650Z,8.53
2019-05-29T01:16:51.075Z,8.95
2019-05-29T01:19:24.545Z,8.40
2019-05-29T01:21:52.262Z,8.50
2019-05-29T01:24:20.625Z,8.58
2019-05-29T01:26:48.203Z,8.37
2019-05-29T01:29:16.974Z,8.65
2019-05-29T01:31:46.121Z,8.03
2019-05-29T01:34:13.583Z,8.38
2019-05-29T01:36:41.045Z,8.40
2019-05-29T01:39:08.536Z,8.15
2019-05-29T01:41:36.042Z,9.15
2019-05-29T01:44:03.914Z,8.03
2019-05-29T01:46:31.395Z,8.20
2019-05-29T01:48:58.900Z,8.43
2019-05-29T01:51:26.420Z,8.13
2019-05-29T01:53:53.913Z,8.17
2019-05-29T01:56:21.893Z,8.30
2019-05-29T01:58:49.427Z,8.18
2019-05-29T02:01:18.003Z,7.92
2019-05-29T02:03:45.663Z,8.43
2019-05-29T02:06:13.166Z,8.63
2019-05-29T02:08:40.644Z,8.35
2019-05-29T02:11:08.103Z,9.08
2019-05-29T02:13:35.546Z,9.53
2019-05-29T02:16:03.012Z,9.58
2019-05-29T02:18:30.480Z,9.37
2019-05-29T02:20:58.006Z,9.13
2019-05-29T02:23:25.755Z,9.83
2019-05-29T02:25:53.620Z,10.10
2019-05-29T02:28:21.079Z,10.00
2019-05-29T02:30:48.838Z,10.27
2019-05-29T02:33:17.585Z,9.53
2019-05-29T02:35:45.555Z,10.70
2019-05-29T02:38:13.078Z,10.15
2019-05-29T02:40:40.518Z,10.70
2019-05-29T02:43:08.273Z,10.87
2019-05-29T02:45:52.761Z,11.03
2019-05-29T02:48:05.425Z,11.20
2019-05-29T02:50:32.928Z,11.37
2019-05-29T02:53:00.400Z,11.43
2019-05-29T02:55:28.910Z,10.77
2019-05-29T02:57:56.526Z,9.90
2019-05-29T03:00:53.329Z,10.97
2019-05-29T03:03:23.518Z,10.65
2019-05-29T03:05:51.959Z,10.75
2019-05-29T03:08:19.850Z,10.40
2019-05-29T03:10:47.351Z,10.78
2019-05-29T03:13:15.434Z,11.00
2019-05-29T03:15:42.923Z,10.10
2019-05-29T03:18:10.381Z,9.83
2019-05-29T03:20:37.999Z,10.07
2019-05-29T03:23:05.463Z,10.17
2019-05-29T03:25:32.914Z,10.70
2019-05-29T03:28:00.689Z,10.58
2019-05-29T03:30:31.677Z,9.85
2019-05-29T03:32:57.437Z,11.48
2019-05-29T03:35:27.515Z,10.88
2019-05-29T03:37:58.446Z,10.90
2019-05-29T03:40:23.776Z,10.07
2019-05-29T03:42:51.264Z,11.03
2019-05-29T03:45:19.045Z,10.15
2019-05-29T03:47:46.808Z,11.07
2019-05-29T03:50:15.858Z,11.17
2019-05-29T03:52:43.544Z,10.47
2019-05-29T03:55:11.270Z,11.40
2019-05-29T03:57:38.709Z,11.10
2019-05-29T04:00:07.413Z,10.75
2019-05-29T04:02:35.660Z,9.95
2019-05-29T04:05:04.714Z,10.53
2019-05-29T04:07:33.790Z,9.70
2019-05-29T04:10:01.561Z,10.63
2019-05-29T04:12:29.502Z,10.57
2019-05-29T04:14:57.005Z,10.03
2019-05-29T04:17:27.223Z,9.73
2019-05-29T04:19:55.115Z,9.70
2019-05-29T04:22:27.948Z,9.83
2019-05-29T04:24:58.449Z,11.15
2019-05-29T04:27:27.919Z,10.55
2019-05-29T04:29:58.982Z,10.13
2019-05-29T04:32:28.010Z,9.60
2019-05-29T04:34:55.719Z,10.08
2019-05-29T04:37:23.206Z,9.65
2019-05-29T04:39:50.654Z,9.85
2019-05-29T04:42:18.149Z,9.08
2019-05-29T04:44:45.599Z,10.90
2019-05-29T04:47:13.151Z,10.08
2019-05-29T04:49:40.651Z,9.85
2019-05-29T04:52:08.139Z,9.70
2019-05-29T04:54:37.379Z,10.33
2019-05-29T04:57:05.009Z,9.50
2019-05-29T04:59:33.011Z,9.33
2019-05-29T05:02:00.551Z,9.40
2019-05-29T05:04:29.126Z,8.90
2019-05-29T05:06:56.711Z,9.45
2019-05-29T05:09:24.189Z,9.38
2019-05-29T05:11:51.799Z,8.80
2019-05-29T05:14:19.252Z,9.48
2019-05-29T05:16:47.063Z,10.20
2019-05-29T05:19:16.934Z,9.15
2019-05-29T05:21:43.900Z,8.85
2019-05-29T05:24:11.367Z,9.60
2019-05-29T05:26:38.930Z,8.90
2019-05-29T05:29:06.360Z,9.13
2019-05-29T05:31:34.927Z,8.58
2019-05-29T05:34:02.404Z,9.30
2019-05-29T05:36:30.637Z,8.80
2019-05-29T05:38:58.136Z,9.83
2019-05-29T05:41:25.584Z,8.90
2019-05-29T05:43:53.044Z,9.43
2019-05-29T05:46:20.499Z,9.78
2019-05-29T05:48:48.024Z,9.25
2019-05-29T05:51:15.865Z,8.50
2019-05-29T05:53:43.342Z,9.35
2019-05-29T05:56:11.079Z,8.90
2019-05-29T05:58:39.814Z,9.53
2019-05-29T06:01:07.415Z,8.53
2019-05-29T06:03:35.939Z,9.00
2019-05-29T06:06:03.512Z,8.13
2019-05-29T06:08:31.921Z,8.93
2019-05-29T06:10:59.822Z,8.45
2019-05-29T06:13:27.331Z,8.23
2019-05-29T06:15:55.160Z,7.58
2019-05-29T06:18:22.580Z,7.40
2019-05-29T06:20:50.045Z,7.55
2019-05-29T06:23:17.610Z,7.87
2019-05-29T06:25:45.079Z,6.58
2019-05-29T06:28:12.563Z,6.45
2019-05-29T06:30:41.251Z,6.65
2019-05-29T06:33:09.281Z,6.23
2019-05-29T06:35:37.570Z,6.00
2019-05-29T06:38:05.584Z,6.37
2019-05-29T06:40:36.243Z,6.22
2019-05-29T06:43:04.390Z,6.10
2019-05-29T06:45:33.735Z,6.00
2019-05-29T06:48:03.153Z,5.45
2019-05-29T06:50:30.666Z,6.17
2019-05-29T06:52:58.085Z,6.00
2019-05-29T06:55:25.540Z,5.42
2019-05-29T06:57:53.100Z,5.80
2019-05-29T07:00:34.428Z,5.15
2019-05-29T07:02:49.801Z,5.25
2019-05-29T07:05:17.270Z,5.62
2019-05-29T07:07:44.728Z,5.00
2019-05-29T07:10:12.501Z,4.95
2019-05-29T07:12:40.297Z,4.55
2019-05-29T07:15:08.188Z,4.62
2019-05-29T07:17:36.292Z,5.47
2019-05-29T07:20:04.963Z,4.62
2019-05-29T07:22:32.809Z,4.87
2019-05-29T07:25:00.262Z,4.45
2019-05-29T07:27:27.755Z,4.30
2019-05-29T07:29:55.251Z,5.05
2019-05-29T07:32:22.768Z,4.78
2019-05-29T07:35:02.672Z,4.65
2019-05-29T07:37:19.448Z,4.65
2019-05-29T07:39:47.758Z,4.95
2019-05-29T07:42:15.281Z,4.30
2019-05-29T07:44:43.987Z,5.33
2019-05-29T07:47:11.494Z,4.87
2019-05-29T07:49:42.984Z,4.62
2019-05-29T07:52:08.947Z,4.80
2019-05-29T07:54:36.479Z,4.58
2019-05-29T07:57:04.029Z,4.72
2019-05-29T07:59:31.540Z,4.62
2019-05-29T08:01:58.954Z,5.30
2019-05-29T08:04:26.425Z,4.97
2019-05-29T08:06:54.635Z,5.17
2019-05-29T08:09:22.289Z,4.72
2019-05-29T08:11:50.155Z,4.70
2019-05-29T08:14:17.781Z,4.42
2019-05-29T08:16:46.073Z,5.17
2019-05-29T08:19:13.680Z,5.40
2019-05-29T08:21:42.586Z,5.25
2019-05-29T08:24:10.367Z,4.50
2019-05-29T08:26:37.903Z,5.60
2019-05-29T08:29:05.370Z,5.55
2019-05-29T08:31:32.801Z,6.30
2019-05-29T08:34:00.272Z,6.50
2019-05-29T08:36:27.761Z,6.80
2019-05-29T08:38:55.237Z,7.05
2019-05-29T08:41:22.740Z,6.67
2019-05-29T08:43:50.765Z,7.47
2019-05-29T08:46:18.660Z,7.03
2019-05-29T08:48:46.245Z,7.30
2019-05-29T08:51:13.865Z,8.30
2019-05-29T08:53:42.562Z,7.00
2019-05-29T08:56:10.447Z,7.87
2019-05-29T08:58:38.295Z,7.28
2019-05-29T09:01:06.172Z,7.17
2019-05-29T09:03:33.602Z,7.40
2019-05-29T09:06:08.548Z,7.08
2019-05-29T09:08:30.332Z,6.75
2019-05-29T09:10:57.782Z,7.05
2019-05-29T09:13:25.288Z,6.60
2019-05-29T09:15:52.778Z,7.22
2019-05-29T09:18:21.709Z,6.97
2019-05-29T09:21:02.571Z,6.67
2019-05-29T09:23:19.036Z,7.22
2019-05-29T09:25:46.472Z,6.70
2019-05-29T09:28:16.151Z,7.37
2019-05-29T09:30:43.516Z,6.10
2019-05-29T09:33:11.239Z,6.50
2019-05-29T09:35:38.718Z,6.45
2019-05-29T09:38:06.156Z,6.10
2019-05-29T09:40:33.638Z,6.70
2019-05-29T09:43:01.450Z,6.05
2019-05-29T09:45:29.489Z,5.53
2019-05-29T09:47:56.912Z,5.80
2019-05-29T09:50:25.999Z,5.67
2019-05-29T09:52:55.386Z,5.55
2019-05-29T09:55:23.055Z,4.97
2019-05-29T09:57:50.503Z,5.20
2019-05-29T10:00:18.007Z,4.95
2019-05-29T10:02:45.491Z,5.20
2019-05-29T10:05:13.480Z,4.17
2019-05-29T10:07:40.971Z,5.17
2019-05-29T10:10:10.142Z,5.28
2019-05-29T10:12:37.689Z,4.50
2019-05-29T10:15:05.776Z,5.08
2019-05-29T10:17:33.229Z,4.80
2019-05-29T10:20:00.818Z,5.25
2019-05-29T10:22:28.423Z,5.33
2019-05-29T10:24:56.872Z,4.95
2019-05-29T10:27:25.167Z,5.47
2019-05-29T10:29:53.171Z,5.35
2019-05-29T10:32:21.748Z,5.92
2019-05-29T10:34:50.577Z,5.78
2019-05-29T10:37:18.473Z,5.50
2019-05-29T10:39:46.797Z,5.47
2019-05-29T10:42:14.681Z,5.65
2019-05-29T10:44:42.969Z,5.55
2019-05-29T10:47:10.456Z,5.87
2019-05-29T10:49:37.896Z,4.10
2019-05-29T10:52:14.686Z,4.12
2019-05-29T10:54:34.648Z,4.70
2019-05-29T10:57:02.157Z,4.72
2019-05-29T10:59:29.922Z,4.97
2019-05-29T11:01:57.871Z,4.35
2019-05-29T11:04:25.289Z,4.65
2019-05-29T11:06:54.794Z,4.87
2019-05-29T11:09:22.363Z,5.00
2019-05-29T11:11:50.695Z,5.15
2019-05-29T11:14:18.379Z,4.25
2019-05-29T11:16:47.054Z,3.92
2019-05-29T11:19:14.526Z,4.22
2019-05-29T11:21:42.026Z,4.60
2019-05-29T11:24:09.539Z,4.30
2019-05-29T11:26:37.045Z,4.80
2019-05-29T11:29:04.688Z,4.33
2019-05-29T11:31:32.136Z,4.50
2019-05-29T11:33:59.642Z,4.17
2019-05-29T11:36:27.444Z,4.17
2019-05-29T11:38:54.938Z,4.60
2019-05-29T11:41:26.395Z,3.92
2019-05-29T11:43:52.644Z,4.35
2019-05-29T11:46:20.249Z,4.50
2019-05-29T11:48:48.352Z,4.70
2019-05-29T11:51:15.908Z,4.60
2019-05-29T11:53:43.352Z,4.30
2019-05-29T11:56:10.845Z,4.37
2019-05-29T11:58:38.311Z,4.35
2019-05-29T12:01:05.747Z,5.12
2019-05-29T12:03:33.239Z,5.30
2019-05-29T12:06:03.081Z,4.75
2019-05-29T12:08:30.307Z,4.80
2019-05-29T12:10:57.826Z,4.92
2019-05-29T12:13:25.301Z,5.20
2019-05-29T12:15:53.651Z,4.87
2019-05-29T12:18:24.360Z,4.67
2019-05-29T12:20:51.964Z,5.17
2019-05-29T12:23:26.169Z,5.08
2019-05-29T12:25:48.983Z,5.30
2019-05-29T12:28:16.499Z,4.92
2019-05-29T12:30:43.970Z,4.65
2019-05-29T12:33:11.512Z,4.75
2019-05-29T12:35:39.007Z,4.75
2019-05-29T12:38:06.548Z,4.37
2019-05-29T12:40:34.001Z,4.65
2019-05-29T12:43:01.911Z,5.03
2019-05-29T12:45:29.549Z,4.50
2019-05-29T12:47:58.203Z,4.87
2019-05-29T12:50:26.149Z,4.25
2019-05-29T12:52:53.885Z,4.67
2019-05-29T12:55:21.393Z,4.92
2019-05-29T12:57:48.880Z,4.30
2019-05-29T13:00:17.066Z,4.08
2019-05-29T13:02:44.660Z,4.15
2019-05-29T13:05:20.131Z,4.30
2019-05-29T13:07:43.137Z,4.97
2019-05-29T13:10:27.207Z,4.42
2019-05-29T13:12:41.063Z,3.90
2019-05-29T13:15:10.490Z,3.47
2019-05-29T13:17:38.020Z,3.27
2019-05-29T13:20:20.112Z,4.05
2019-05-29T13:22:35.570Z,3.60
2019-05-29T13:25:05.527Z,3.40
2019-05-29T13:27:33.026Z,3.35
2019-05-29T13:30:03.821Z,3.30
2019-05-29T13:32:29.901Z,2.83
2019-05-29T13:34:57.926Z,3.52
2019-05-29T13:37:25.502Z,3.22
2019-05-29T13:39:53.370Z,3.52
2019-05-29T13:42:20.903Z,3.02
2019-05-29T13:44:48.455Z,3.35
2019-05-29T13:47:15.989Z,3.02
2019-05-29T13:49:43.515Z,2.77
2019-05-29T13:52:12.504Z,2.95
2019-05-29T13:54:40.267Z,2.60
2019-05-29T13:57:08.773Z,3.45
2019-05-29T13:59:36.317Z,2.92
2019-05-29T14:02:06.228Z,3.10
2019-05-29T14:04:33.593Z,3.00
2019-05-29T14:07:01.057Z,2.85
2019-05-29T14:09:30.329Z,2.80
2019-05-29T14:11:58.928Z,3.05
2019-05-29T14:14:26.625Z,2.60
2019-05-29T14:16:54.151Z,3.90
2019-05-29T14:19:21.619Z,3.10
2019-05-29T14:21:49.081Z,3.05
2019-05-29T14:24:28.365Z,3.40
2019-05-29T14:26:45.830Z,2.47
2019-05-29T14:29:13.316Z,2.58
2019-05-29T14:31:41.063Z,2.75
2019-05-29T14:34:09.497Z,2.60
2019-05-29T14:36:37.105Z,2.52
2019-05-29T14:39:05.792Z,2.80
2019-05-29T14:41:33.390Z,2.50
2019-05-29T14:44:01.711Z,2.87
2019-05-29T14:46:29.637Z,2.60
2019-05-29T14:48:57.191Z,2.50
2019-05-29T14:51:25.130Z,2.70
2019-05-29T14:53:52.668Z,2.87
2019-05-29T14:56:20.223Z,2.90
2019-05-29T14:58:47.688Z,2.58
2019-05-29T15:01:15.173Z,2.60
2019-05-29T15:03:42.654Z,3.00
2019-05-29T15:06:11.669Z,2.62
2019-05-29T15:08:39.214Z,2.85
2019-05-29T15:11:07.869Z,3.25
2019-05-29T15:13:35.365Z,2.70
2019-05-29T15:16:02.871Z,2.85
2019-05-29T15:18:30.628Z,2.87
2019-05-29T15:20:58.087Z,2.90
2019-05-29T15:23:25.536Z,2.75
2019-05-29T15:25:52.979Z,2.67
2019-05-29T15:28:20.543Z,2.45
2019-05-29T15:30:47.989Z,2.77
2019-05-29T15:33:16.752Z,2.87
2019-05-29T15:35:44.368Z,2.65
2019-05-29T15:38:12.855Z,2.30
2019-05-29T15:40:40.419Z,2.72
2019-05-29T15:43:08.788Z,2.42
2019-05-29T15:45:36.357Z,2.50
2019-05-29T15:48:03.859Z,2.30
2019-05-29T15:50:31.315Z,2.75
2019-05-29T15:52:58.797Z,2.60
2019-05-29T15:55:33.588Z,2.10
2019-05-29T15:57:55.684Z,3.12
2019-05-29T16:00:23.273Z,2.80
2019-05-29T16:02:50.780Z,2.20
2019-05-29T16:05:19.247Z,2.30
2019-05-29T16:07:46.911Z,2.30
2019-05-29T16:10:18.150Z,2.50
2019-05-29T16:12:44.365Z,2.20
2019-05-29T16:15:13.116Z,2.00
2019-05-29T16:17:40.776Z,2.05
2019-05-29T16:20:08.609Z,1.77
2019-05-29T16:22:36.156Z,2.62
2019-05-29T16:25:04.299Z,2.27
2019-05-29T16:27:31.850Z,1.82
2019-05-29T16:29:59.395Z,1.75
2019-05-29T16:32:26.956Z,1.77
2019-05-29T16:34:54.552Z,1.62
2019-05-29T16:37:22.415Z,1.82
2019-05-29T16:39:50.004Z,1.80
2019-05-29T16:42:18.097Z,1.80
2019-05-29T16:44:45.758Z,1.60
2019-05-29T16:47:14.759Z,2.42
2019-05-29T16:49:42.374Z,2.42
2019-05-29T16:52:09.930Z,1.80
2019-05-29T16:54:38.031Z,2.02
2019-05-29T16:57:05.777Z,1.92
2019-05-29T16:59:33.635Z,1.90
2019-05-29T17:02:01.235Z,1.80
2019-05-29T17:04:28.757Z,2.95
2019-05-29T17:06:56.266Z,2.42
2019-05-29T17:09:24.601Z,1.87
2019-05-29T17:11:52.239Z,1.82
2019-05-29T17:14:20.807Z,1.70
2019-05-29T17:16:48.542Z,1.72
2019-05-29T17:19:16.576Z,1.70
2019-05-29T17:21:44.084Z,1.47
2019-05-29T17:24:11.880Z,1.60
2019-05-29T17:26:39.352Z,1.60
2019-05-29T17:29:06.827Z,1.92
2019-05-29T17:31:34.388Z,1.70
2019-05-29T17:34:01.909Z,2.22
2019-05-29T17:36:29.461Z,1.67
2019-05-29T17:38:57.158Z,1.77
2019-05-29T17:41:25.310Z,1.70
2019-05-29T17:43:53.039Z,1.60
2019-05-29T17:46:21.789Z,1.30
2019-05-29T17:48:49.647Z,1.85
2019-05-29T17:51:17.514Z,1.65
2019-05-29T17:53:45.243Z,2.12
2019-05-29T17:56:25.274Z,1.50
2019-05-29T17:58:42.185Z,1.95
2019-05-29T18:01:09.649Z,2.00
2019-05-29T18:03:37.101Z,1.55
2019-05-29T18:06:04.592Z,1.70
2019-05-29T18:08:32.103Z,1.55
2019-05-29T18:10:59.635Z,1.52
2019-05-29T18:13:27.502Z,1.80
2019-05-29T18:15:55.010Z,1.60
2019-05-29T18:18:23.562Z,3.08
2019-05-29T18:20:51.291Z,1.70
2019-05-29T18:23:19.969Z,1.72
2019-05-29T18:25:47.574Z,1.82
2019-05-29T18:28:15.034Z,1.92
2019-05-29T18:30:42.540Z,2.17
2019-05-29T18:33:10.039Z,1.80
2019-05-29T18:35:37.466Z,1.72
2019-05-29T18:38:04.981Z,2.00
2019-05-29T18:42:53.635Z,1.87
2019-05-29T18:45:23.457Z,2.58
2019-05-29T18:47:50.366Z,1.50
2019-05-29T18:50:19.893Z,1.87
2019-05-29T18:52:47.731Z,2.12
2019-05-29T18:55:15.373Z,2.12
2019-05-29T18:57:42.978Z,2.12
2019-05-29T19:00:12.037Z,2.25
2019-05-29T19:02:39.571Z,2.20
2019-05-29T19:05:07.662Z,2.05
2019-05-29T19:07:35.162Z,2.55
2019-05-29T19:10:06.417Z,2.30
2019-05-29T19:12:32.552Z,2.50
2019-05-29T19:15:00.093Z,2.65
2019-05-29T19:17:28.013Z,2.27
2019-05-29T19:19:55.492Z,2.67
2019-05-29T19:22:24.315Z,2.40
2019-05-29T19:24:51.897Z,3.12
2019-05-29T19:27:31.219Z,2.80
2019-05-29T19:29:48.719Z,2.87
2019-05-29T19:32:16.175Z,2.80
2019-05-29T19:34:43.674Z,2.83
2019-05-29T19:37:11.164Z,4.90
2019-05-29T19:39:38.644Z,5.12
2019-05-29T19:42:06.118Z,6.20
2019-05-29T19:44:34.594Z,6.35
2019-05-29T19:47:02.247Z,5.90
2019-05-29T19:49:30.881Z,6.40
2019-05-29T19:51:58.534Z,6.42
2019-05-29T19:54:27.347Z,5.62
2019-05-29T19:56:55.335Z,5.03
2019-05-29T19:59:22.796Z,5.00
2019-05-29T20:01:50.688Z,5.83
2019-05-29T20:04:18.179Z,5.70
2019-05-29T20:06:45.637Z,5.27
2019-05-29T20:09:13.099Z,5.85
2019-05-29T20:11:40.610Z,5.67
2019-05-29T20:14:08.108Z,4.95
2019-05-29T20:16:36.269Z,4.60
2019-05-29T20:19:04.056Z,4.85
2019-05-29T20:21:32.648Z,4.62
2019-05-29T20:24:00.478Z,4.15
2019-05-29T20:26:29.118Z,3.90
2019-05-29T20:28:56.724Z,4.25
2019-05-29T20:31:24.188Z,4.22
2019-05-29T20:33:51.668Z,4.55
2019-05-29T20:36:19.123Z,4.47
2019-05-29T20:38:46.590Z,4.70
2019-05-29T20:41:14.381Z,4.75
2019-05-29T20:43:41.950Z,4.03
2019-05-29T20:46:09.459Z,4.30
2019-05-29T20:48:36.938Z,4.47
2019-05-29T20:51:04.378Z,4.67
2019-05-29T20:53:31.848Z,4.15
2019-05-29T20:55:59.382Z,4.30
2019-05-29T20:58:26.861Z,4.30
2019-05-29T21:00:54.442Z,4.37
2019-05-29T21:03:21.948Z,4.72
2019-05-29T21:05:49.412Z,4.72
2019-05-29T21:08:17.213Z,5.37
2019-05-29T21:10:44.665Z,4.50
2019-05-29T21:13:12.188Z,4.65
2019-05-29T21:15:39.783Z,4.70
2019-05-29T21:18:07.363Z,5.35
2019-05-29T21:20:36.141Z,5.80
2019-05-29T21:23:03.712Z,5.62
2019-05-29T21:25:31.489Z,4.95
2019-05-29T21:27:58.987Z,5.53
2019-05-29T21:30:26.460Z,5.37
2019-05-29T21:32:53.920Z,5.70
2019-05-29T21:35:21.382Z,6.57
2019-05-29T21:37:48.850Z,5.33
2019-05-29T21:40:16.594Z,4.80
2019-05-29T21:42:44.872Z,5.00
2019-05-29T21:45:12.628Z,5.90
2019-05-29T21:47:40.981Z,7.00
2019-05-29T21:50:09.032Z,6.10
2019-05-29T21:52:37.554Z,4.60
2019-05-29T21:55:05.943Z,4.53
2019-05-29T21:57:33.638Z,4.43
2019-05-29T22:00:01.356Z,5.53
2019-05-29T22:02:28.817Z,6.50
2019-05-29T22:04:56.296Z,5.63
2019-05-29T22:07:23.867Z,5.55
2019-05-29T22:09:52.282Z,5.87
2019-05-29T22:12:19.779Z,5.70
2019-05-29T22:14:47.214Z,5.50
2019-05-29T22:17:14.671Z,5.37
2019-05-29T22:19:42.146Z,6.17
2019-05-29T22:22:09.642Z,6.57
2019-05-29T22:24:37.071Z,6.57
2019-05-29T22:27:04.524Z,7.03
2019-05-29T22:29:32.009Z,6.50
2019-05-29T22:31:59.598Z,6.43
2019-05-29T22:37:02.035Z,4.90
2019-05-29T22:39:29.504Z,5.63
2019-05-29T22:41:57.557Z,5.50
2019-05-29T22:44:25.117Z,5.03
2019-05-29T22:46:53.592Z,5.00
2019-05-29T22:49:21.722Z,6.20
2019-05-29T22:51:49.228Z,6.07
2019-05-29T22:54:16.672Z,6.73
2019-05-29T22:56:44.177Z,6.87
2019-05-29T22:59:11.681Z,7.00
2019-05-29T23:01:39.137Z,8.10
2019-05-29T23:04:06.617Z,7.13
2019-05-29T23:06:34.145Z,7.57
2019-05-29T23:09:02.543Z,7.93
2019-05-29T23:11:30.135Z,8.43
2019-05-29T23:13:58.321Z,9.37
2019-05-29T23:16:25.866Z,9.27
2019-05-29T23:18:54.430Z,8.20
2019-05-29T23:21:21.996Z,8.23
2019-05-29T23:23:49.453Z,7.63
2019-05-29T23:26:16.907Z,6.90
2019-05-29T23:28:44.464Z,7.67
2019-05-29T23:31:11.976Z,7.10
2019-05-29T23:33:39.748Z,7.63
2019-05-29T23:36:07.227Z,7.73
2019-05-29T23:38:34.749Z,7.13
2019-05-29T23:41:03.627Z,7.60
2019-05-29T23:43:31.311Z,7.23
2019-05-29T23:45:59.468Z,7.97
2019-05-29T23:48:27.029Z,6.63
2019-05-29T23:50:55.508Z,7.37
2019-05-29T23:53:23.032Z,7.43
2019-05-29T23:55:50.571Z,7.20
2019-05-29T23:58:18.024Z,7.20
